Time;durP1;ratioP1;P1;durP2;ratioP2;P2;SDS_P1;SDS_P2;PMS_P1;PMS_P2;Temp;Humidity;BMP_temperature;BMP_pressure;BME280_temperature;BME280_humidity;BME280_pressure;Samples;Min_cycle;Max_cycle;Signal;HPM_P1;HPM_P2
2023/01/17 00:01:02;;;;;;;;;5.25;5.00;;;;;;;;5084413;28;61795;-81
2023/01/17 00:03:28;;;;;;;;;4.75;4.75;;;;;;;;5084142;28;61821;-80
2023/01/17 00:11:21;;;;;;;;;7.25;5.25;;;;;;;;5084088;28;61713;-81
2023/01/17 00:13:46;;;;;;;;;4.25;4.00;;;;;;;;5084218;28;61607;-80
2023/01/17 00:16:11;;;;;;;;;6.25;2.00;;;;;;;;5083234;28;61673;-80
2023/01/17 00:18:36;;;;;;;;;4.00;4.00;;;;;;;;5065031;28;65221;-80
2023/01/17 00:26:30;;;;;;;;;9.00;9.00;;;;;;;;5084345;28;61951;-80
2023/01/17 01:35:48;;;;;;;;;13.50;10.50;;;;;;;;5082608;28;61805;-81
2023/01/17 01:38:14;;;;;;;;;15.75;9.25;;;;;;;;5082742;28;61716;-80
2023/01/17 01:40:46;;;;;;;;;13.25;8.00;;;;;;;;5082622;28;61824;-80
2023/01/17 01:43:13;;;;;;;;;14.25;12.25;;;;;;;;5082146;28;61793;-81
2023/01/17 01:45:39;;;;;;;;;12.00;9.25;;;;;;;;5082630;28;61848;-80
2023/01/17 01:48:13;;;;;;;;;11.00;11.00;;;;;;;;5063932;28;61848;-80
2023/01/17 01:50:39;;;;;;;;;13.00;8.25;;;;;;;;5082715;28;61718;-81
2023/01/17 01:53:05;;;;;;;;;13.00;9.75;;;;;;;;5081980;28;61855;-80
2023/01/17 01:55:33;;;;;;;;;9.75;9.25;;;;;;;;5082316;28;62087;-80
2023/01/17 01:58:00;;;;;;;;;8.25;8.25;;;;;;;;5082777;28;61761;-80
2023/01/17 02:00:29;;;;;;;;;11.75;8.00;;;;;;;;5082784;28;61982;-80
2023/01/17 02:02:56;;;;;;;;;13.00;10.50;;;;;;;;5081231;28;61859;-80
2023/01/17 02:05:22;;;;;;;;;10.25;7.00;;;;;;;;5063966;28;61627;-80
2023/01/17 02:07:51;;;;;;;;;12.00;8.00;;;;;;;;5082156;28;61784;-80
2023/01/17 02:10:16;;;;;;;;;12.00;8.00;;;;;;;;5081845;28;61952;-80
2023/01/17 02:12:42;;;;;;;;;8.75;5.50;;;;;;;;5063292;28;63682;-80
2023/01/17 02:15:08;;;;;;;;;6.00;6.00;;;;;;;;5082243;28;61970;-80
2023/01/17 02:17:33;;;;;;;;;6.00;6.00;;;;;;;;5063959;28;61731;-80
2023/01/17 02:20:07;;;;;;;;;8.00;8.00;;;;;;;;5082248;28;61733;-80
2023/01/17 02:22:48;;;;;;;;;7.75;6.00;;;;;;;;5081778;28;62069;-80
2023/01/17 02:25:23;;;;;;;;;8.50;6.50;;;;;;;;5082121;28;61784;-80
2023/01/17 02:28:08;;;;;;;;;4.50;4.50;;;;;;;;5063883;28;61708;-80
2023/01/17 02:30:39;;;;;;;;;9.00;8.25;;;;;;;;5082479;28;61685;-80
2023/01/17 02:33:08;;;;;;;;;5.75;5.75;;;;;;;;5081221;28;63047;-80
2023/01/17 02:35:37;;;;;;;;;6.50;6.50;;;;;;;;5082054;28;61706;-81
2023/01/17 02:38:11;;;;;;;;;4.50;4.50;;;;;;;;5081890;28;61819;-80
2023/01/17 02:40:40;;;;;;;;;6.00;4.75;;;;;;;;5083900;28;62103;-80
2023/01/17 02:43:09;;;;;;;;;8.25;8.25;;;;;;;;5084948;28;62063;-80
2023/01/17 02:45:34;;;;;;;;;8.50;5.00;;;;;;;;5066961;28;62016;-80
2023/01/17 02:48:00;;;;;;;;;5.25;5.25;;;;;;;;5066867;28;62095;-80
2023/01/17 02:50:54;;;;;;;;;5.50;4.00;;;;;;;;5105584;27;62245;-80
2023/01/17 02:53:28;;;;;;;;;8.00;8.00;;;;;;;;5061930;28;62018;-80
2023/01/17 02:55:53;;;;;;;;;5.25;5.00;;;;;;;;5061934;28;61856;-80
2023/01/17 02:58:37;;;;;;;;;5.00;5.00;;;;;;;;5045583;28;61793;-81
2023/01/17 03:01:14;;;;;;;;;6.00;5.50;;;;;;;;5045376;28;62137;-80
2023/01/17 03:03:42;;;;;;;;;11.25;6.50;;;;;;;;5061678;28;62662;-80
2023/01/17 03:06:11;;;;;;;;;8.25;6.50;;;;;;;;5062109;28;62135;-80
2023/01/17 03:08:41;;;;;;;;;11.25;9.50;;;;;;;;5044797;28;61783;-80
2023/01/17 03:11:08;;;;;;;;;9.25;6.50;;;;;;;;5061650;28;62055;-80
2023/01/17 03:13:33;;;;;;;;;13.75;7.00;;;;;;;;5061685;28;62087;-80
2023/01/17 03:15:59;;;;;;;;;5.00;5.00;;;;;;;;5044747;28;61956;-80
2023/01/17 03:18:24;;;;;;;;;9.50;7.00;;;;;;;;5062129;28;61965;-80
2023/01/17 03:20:49;;;;;;;;;8.00;8.00;;;;;;;;5062288;28;61831;-80
2023/01/17 03:23:14;;;;;;;;;10.75;7.00;;;;;;;;5044493;28;64906;-81
2023/01/17 03:25:40;;;;;;;;;12.25;7.50;;;;;;;;5061507;28;61847;-80
2023/01/17 03:28:05;;;;;;;;;5.00;5.00;;;;;;;;5061993;28;61712;-80
2023/01/17 03:30:30;;;;;;;;;8.50;6.50;;;;;;;;5080638;28;61734;-80
2023/01/17 03:32:56;;;;;;;;;8.50;7.50;;;;;;;;5083897;28;62908;-80
2023/01/17 03:35:21;;;;;;;;;11.50;8.00;;;;;;;;5082998;28;61863;-79
2023/01/17 03:37:46;;;;;;;;;10.50;7.50;;;;;;;;5084778;28;61956;-81
2023/01/17 03:40:11;;;;;;;;;8.50;8.50;;;;;;;;5084346;28;62028;-81
2023/01/17 03:42:37;;;;;;;;;10.00;6.00;;;;;;;;5084121;28;61794;-81
2023/01/17 03:45:02;;;;;;;;;8.00;8.00;;;;;;;;5082332;28;61720;-82
2023/01/17 03:47:27;;;;;;;;;5.75;5.00;;;;;;;;5083171;28;61751;-81
2023/01/17 03:49:52;;;;;;;;;9.00;8.00;;;;;;;;5078071;28;62076;-81
2023/01/17 03:52:18;;;;;;;;;10.00;8.00;;;;;;;;5060994;28;65260;-81
2023/01/17 03:54:43;;;;;;;;;8.50;6.50;;;;;;;;5063665;28;61916;-81
2023/01/17 03:57:08;;;;;;;;;8.50;5.00;;;;;;;;5061998;28;61742;-81
2023/01/17 03:59:33;;;;;;;;;7.50;7.50;;;;;;;;5054839;28;62147;-81
2023/01/17 04:01:59;;;;;;;;;5.50;5.25;;;;;;;;5063441;28;62044;-81
2023/01/17 04:04:25;;;;;;;;;8.25;6.00;;;;;;;;5063864;28;62352;-81
2023/01/17 04:06:50;;;;;;;;;8.00;5.75;;;;;;;;5063921;28;61838;-81
2023/01/17 04:09:15;;;;;;;;;16.25;15.75;;;;;;;;5063115;28;62102;-81
2023/01/17 04:11:40;;;;;;;;;12.75;12.25;;;;;;;;5061026;28;63687;-81
2023/01/17 04:14:06;;;;;;;;;19.50;12.50;;;;;;;;5055480;28;61939;-81
2023/01/17 04:16:31;;;;;;;;;4.75;4.75;;;;;;;;5064001;28;62034;-81
2023/01/17 04:18:57;;;;;;;;;10.00;8.00;;;;;;;;5063737;28;62119;-80
2023/01/17 04:21:22;;;;;;;;;7.50;7.50;;;;;;;;5062994;28;61813;-81
2023/01/17 04:23:48;;;;;;;;;13.25;8.75;;;;;;;;5063714;28;62044;-80
2023/01/17 04:26:13;;;;;;;;;10.50;9.75;;;;;;;;5063115;28;61817;-81
2023/01/17 04:28:38;;;;;;;;;9.00;9.00;;;;;;;;5063682;28;61780;-81
2023/01/17 04:31:04;;;;;;;;;8.25;7.50;;;;;;;;5062624;28;62669;-81
2023/01/17 04:33:29;;;;;;;;;12.00;10.75;;;;;;;;5063127;28;61945;-81
2023/01/17 04:35:55;;;;;;;;;13.50;10.00;;;;;;;;5063636;28;61879;-81
2023/01/17 04:38:21;;;;;;;;;12.75;12.50;;;;;;;;5063102;28;62009;-81
2023/01/17 04:40:47;;;;;;;;;20.00;12.75;;;;;;;;5062272;28;62084;-81
2023/01/17 04:43:12;;;;;;;;;16.75;10.00;;;;;;;;5061496;28;61831;-81
2023/01/17 04:45:38;;;;;;;;;12.50;12.50;;;;;;;;5063032;28;61781;-81
2023/01/17 04:48:04;;;;;;;;;11.00;11.00;;;;;;;;5062647;28;62032;-81
2023/01/17 04:50:31;;;;;;;;;16.00;12.50;;;;;;;;5042467;28;61780;-81
2023/01/17 04:52:56;;;;;;;;;12.00;12.00;;;;;;;;5043008;28;61818;-81
2023/01/17 04:55:21;;;;;;;;;16.75;12.25;;;;;;;;5042599;28;62122;-81
2023/01/17 04:57:47;;;;;;;;;11.75;10.50;;;;;;;;5024932;28;61810;-81
2023/01/17 05:00:12;;;;;;;;;16.00;13.00;;;;;;;;5041763;28;61981;-81
2023/01/17 05:02:38;;;;;;;;;15.50;11.25;;;;;;;;5042072;28;61736;-81
2023/01/17 05:05:04;;;;;;;;;15.25;11.50;;;;;;;;5042593;28;61896;-81
2023/01/17 05:07:29;;;;;;;;;15.00;12.50;;;;;;;;5042835;28;61965;-82
2023/01/17 05:09:59;;;;;;;;;11.50;10.25;;;;;;;;5043631;28;62731;-81
2023/01/17 05:12:27;;;;;;;;;13.00;11.00;;;;;;;;5082182;28;61996;-81
2023/01/17 05:14:53;;;;;;;;;9.75;9.75;;;;;;;;5082964;28;61852;-81
2023/01/17 05:17:18;;;;;;;;;14.00;14.00;;;;;;;;5083228;28;62101;-81
2023/01/17 05:19:44;;;;;;;;;14.00;11.00;;;;;;;;5082305;28;62727;-81
2023/01/17 05:22:16;;;;;;;;;21.50;12.50;;;;;;;;5082588;28;61863;-81
2023/01/17 05:24:42;;;;;;;;;12.75;12.25;;;;;;;;5082984;28;61793;-81
2023/01/17 05:27:07;;;;;;;;;14.25;12.00;;;;;;;;5082911;28;62196;-81
2023/01/17 05:29:32;;;;;;;;;23.25;13.75;;;;;;;;5082320;28;61883;-81
2023/01/17 05:31:58;;;;;;;;;14.50;13.00;;;;;;;;5082650;28;62012;-81
2023/01/17 05:34:23;;;;;;;;;14.25;12.75;;;;;;;;5082405;28;61619;-81
2023/01/17 05:36:48;;;;;;;;;15.00;12.50;;;;;;;;5064718;28;61888;-82
2023/01/17 05:39:13;;;;;;;;;26.00;13.00;;;;;;;;5081327;28;62835;-81
2023/01/17 05:41:39;;;;;;;;;18.00;14.00;;;;;;;;5082298;28;61914;-80
2023/01/17 05:44:04;;;;;;;;;15.75;13.00;;;;;;;;5064136;28;62043;-81
2023/01/17 05:46:29;;;;;;;;;16.25;14.25;;;;;;;;5082736;28;61690;-81
2023/01/17 05:48:55;;;;;;;;;13.50;12.00;;;;;;;;5070971;27;63755;-82
2023/01/17 05:51:20;;;;;;;;;12.25;9.75;;;;;;;;5102852;27;61938;-81
2023/01/17 05:53:45;;;;;;;;;19.00;14.25;;;;;;;;5103067;27;61995;-81
2023/01/17 05:56:10;;;;;;;;;18.00;12.00;;;;;;;;5102705;27;61805;-81
2023/01/17 05:58:36;;;;;;;;;19.75;13.50;;;;;;;;5102364;27;61830;-81
2023/01/17 06:01:01;;;;;;;;;17.75;15.50;;;;;;;;5102844;27;61715;-81
2023/01/17 06:03:26;;;;;;;;;18.75;13.50;;;;;;;;5084160;27;61948;-82
2023/01/17 06:05:51;;;;;;;;;18.00;15.25;;;;;;;;5103784;27;61821;-85
2023/01/17 06:08:17;;;;;;;;;20.00;12.75;;;;;;;;5102247;27;61785;-82
2023/01/17 06:10:42;;;;;;;;;20.25;16.75;;;;;;;;5102176;27;61905;-82
2023/01/17 06:13:09;;;;;;;;;12.75;10.00;;;;;;;;5102928;27;61871;-82
2023/01/17 06:15:35;;;;;;;;;17.75;14.00;;;;;;;;5107031;27;61721;-80
2023/01/17 06:18:11;;;;;;;;;14.50;12.00;;;;;;;;5087430;27;63703;-80
2023/01/17 06:20:37;;;;;;;;;21.50;15.00;;;;;;;;5106038;27;62029;-81
2023/01/17 06:23:03;;;;;;;;;12.25;12.25;;;;;;;;5106695;27;61908;-81
2023/01/17 06:25:29;;;;;;;;;19.00;13.00;;;;;;;;5105843;27;61835;-81
2023/01/17 06:27:54;;;;;;;;;25.00;19.75;;;;;;;;5087036;27;63834;-82
2023/01/17 06:30:20;;;;;;;;;27.25;20.00;;;;;;;;5099791;27;61984;-82
2023/01/17 06:32:50;;;;;;;;;34.00;31.75;;;;;;;;5085003;28;61716;-81
2023/01/17 06:35:16;;;;;;;;;45.75;38.25;;;;;;;;5085396;28;62029;-82
2023/01/17 06:37:41;;;;;;;;;80.67;59.33;;;;;;;;5085020;28;62780;-81
2023/01/17 06:40:07;;;;;;;;;65.25;48.00;;;;;;;;5066732;28;62047;-82
2023/01/17 06:42:32;;;;;;;;;33.75;27.00;;;;;;;;5084338;28;62150;-82
2023/01/17 06:44:57;;;;;;;;;34.50;28.75;;;;;;;;5084004;28;61935;-81
2023/01/17 06:47:23;;;;;;;;;27.75;15.75;;;;;;;;5084299;28;62801;-81
2023/01/17 06:49:49;;;;;;;;;26.50;21.50;;;;;;;;5066053;28;61859;-81
2023/01/17 06:52:14;;;;;;;;;36.00;24.75;;;;;;;;5084303;28;61844;-83
2023/01/17 06:54:39;;;;;;;;;29.50;23.50;;;;;;;;5084532;28;62096;-83
2023/01/17 06:57:04;;;;;;;;;14.25;12.25;;;;;;;;5084459;28;62654;-81
2023/01/17 06:59:30;;;;;;;;;19.00;16.25;;;;;;;;5066429;28;61749;-81
2023/01/17 07:01:55;;;;;;;;;34.25;26.50;;;;;;;;5066675;28;61854;-81
2023/01/17 07:04:20;;;;;;;;;28.00;21.00;;;;;;;;5084705;28;61852;-81
2023/01/17 07:06:45;;;;;;;;;39.00;25.75;;;;;;;;5084196;28;61967;-82
2023/01/17 07:09:11;;;;;;;;;20.25;17.00;;;;;;;;5082671;28;62033;-82
2023/01/17 07:11:36;;;;;;;;;20.00;17.75;;;;;;;;5061547;28;62142;-83
2023/01/17 07:14:01;;;;;;;;;25.75;19.00;;;;;;;;5064829;28;62002;-82
2023/01/17 07:16:27;;;;;;;;;19.50;16.25;;;;;;;;5061403;28;63761;-82
2023/01/17 07:18:53;;;;;;;;;19.50;17.75;;;;;;;;5061966;28;62003;-82
2023/01/17 07:21:18;;;;;;;;;18.25;17.25;;;;;;;;5064499;28;61912;-82
2023/01/17 07:23:44;;;;;;;;;21.00;14.50;;;;;;;;5063168;28;61769;-82
2023/01/17 07:26:09;;;;;;;;;22.75;17.00;;;;;;;;5062901;28;61934;-82
2023/01/17 07:28:34;;;;;;;;;23.25;17.00;;;;;;;;5064492;28;61812;-82
2023/01/17 07:31:09;;;;;;;;;22.50;16.25;;;;;;;;5064561;28;62052;-82
2023/01/17 07:33:34;;;;;;;;;27.00;16.75;;;;;;;;5064355;28;62155;-81
2023/01/17 07:36:07;;;;;;;;;22.50;17.00;;;;;;;;5061574;28;64665;-80
2023/01/17 07:38:35;;;;;;;;;29.50;21.75;;;;;;;;5065613;28;61800;-80
2023/01/17 07:41:01;;;;;;;;;20.00;17.50;;;;;;;;5084277;28;61947;-79
2023/01/17 07:43:26;;;;;;;;;24.50;15.50;;;;;;;;5076682;28;61737;-83
2023/01/17 07:45:52;;;;;;;;;22.25;18.25;;;;;;;;5063606;28;62261;-80
2023/01/17 07:48:18;;;;;;;;;30.25;21.00;;;;;;;;5063589;28;61918;-80
2023/01/17 07:50:50;;;;;;;;;24.25;14.25;;;;;;;;5063589;28;61794;-83
2023/01/17 07:53:16;;;;;;;;;24.75;22.25;;;;;;;;5046436;28;61956;-85
2023/01/17 07:55:41;;;;;;;;;24.75;14.50;;;;;;;;5062504;28;62412;-85
2023/01/17 07:58:06;;;;;;;;;22.25;17.00;;;;;;;;5063331;28;61992;-84
2023/01/17 08:00:31;;;;;;;;;18.00;14.50;;;;;;;;5045703;28;61991;-84
2023/01/17 08:02:57;;;;;;;;;20.50;15.50;;;;;;;;5063624;28;61794;-83
2023/01/17 08:05:23;;;;;;;;;20.50;13.75;;;;;;;;5062963;28;61774;-83
2023/01/17 08:07:48;;;;;;;;;14.00;13.00;;;;;;;;5063423;28;61730;-82
2023/01/17 08:10:16;;;;;;;;;19.75;16.00;;;;;;;;5067033;28;61878;-82
2023/01/17 08:12:43;;;;;;;;;21.75;11.00;;;;;;;;5084034;28;61587;-83
2023/01/17 08:15:09;;;;;;;;;19.50;17.00;;;;;;;;5065107;28;64633;-82
2023/01/17 08:17:34;;;;;;;;;26.50;19.50;;;;;;;;5083849;28;62033;-82
2023/01/17 08:19:59;;;;;;;;;16.75;12.75;;;;;;;;5083829;28;61908;-82
2023/01/17 08:22:25;;;;;;;;;20.00;13.25;;;;;;;;5065720;28;62166;-82
2023/01/17 08:24:50;;;;;;;;;21.75;16.00;;;;;;;;5082440;28;62013;-82
2023/01/17 08:27:15;;;;;;;;;16.50;15.00;;;;;;;;5083887;28;61974;-82
2023/01/17 08:29:45;;;;;;;;;20.00;14.00;;;;;;;;5083704;28;62190;-82
2023/01/17 08:32:11;;;;;;;;;28.25;20.25;;;;;;;;5084006;28;61745;-84
2023/01/17 08:34:36;;;;;;;;;30.00;22.50;;;;;;;;5060715;28;63272;-82
2023/01/17 08:37:01;;;;;;;;;22.00;18.75;;;;;;;;5072579;28;61936;-82
2023/01/17 08:39:27;;;;;;;;;16.50;14.50;;;;;;;;5082761;28;61866;-82
2023/01/17 08:41:52;;;;;;;;;26.00;15.25;;;;;;;;5064542;28;61708;-83
2023/01/17 08:44:18;;;;;;;;;26.50;21.25;;;;;;;;5081309;28;63588;-82
2023/01/17 08:46:44;;;;;;;;;19.75;16.00;;;;;;;;5081656;28;61701;-83
2023/01/17 08:49:09;;;;;;;;;25.50;17.25;;;;;;;;5075536;28;61798;-83
2023/01/17 08:51:35;;;;;;;;;27.50;20.00;;;;;;;;5083426;28;61675;-83
2023/01/17 08:54:00;;;;;;;;;24.50;17.75;;;;;;;;5064253;28;63379;-83
2023/01/17 08:56:26;;;;;;;;;29.25;24.50;;;;;;;;5083132;28;61639;-83
2023/01/17 08:58:51;;;;;;;;;23.00;22.00;;;;;;;;5083055;28;61844;-83
2023/01/17 09:01:17;;;;;;;;;32.00;21.50;;;;;;;;5064729;28;61797;-84
2023/01/17 09:03:42;;;;;;;;;24.50;17.75;;;;;;;;5082422;28;61832;-83
2023/01/17 09:06:07;;;;;;;;;40.75;21.00;;;;;;;;5083200;28;61884;-83
2023/01/17 09:08:33;;;;;;;;;23.00;20.50;;;;;;;;5064877;28;61891;-82
2023/01/17 09:11:04;;;;;;;;;27.25;19.00;;;;;;;;5082662;28;62209;-82
2023/01/17 09:13:29;;;;;;;;;26.50;15.75;;;;;;;;5082620;28;61866;-83
2023/01/17 09:15:55;;;;;;;;;18.00;18.00;;;;;;;;5064415;28;62235;-82
2023/01/17 09:18:21;;;;;;;;;23.75;18.00;;;;;;;;5064561;28;61837;-85
2023/01/17 09:20:46;;;;;;;;;20.25;17.25;;;;;;;;5064640;28;62215;-84
2023/01/17 09:23:11;;;;;;;;;18.50;12.25;;;;;;;;5063894;28;64696;-87
2023/01/17 09:25:38;;;;;;;;;17.75;14.00;;;;;;;;5064312;28;62151;-87
2023/01/17 09:28:04;;;;;;;;;22.50;18.50;;;;;;;;5064187;28;61838;-86
2023/01/17 09:30:29;;;;;;;;;24.50;20.75;;;;;;;;5064618;28;61797;-86
2023/01/17 09:32:54;;;;;;;;;20.75;14.75;;;;;;;;5063393;28;63658;-86
2023/01/17 09:35:19;;;;;;;;;21.50;17.00;;;;;;;;5082589;28;61867;-86
2023/01/17 09:37:47;;;;;;;;;22.50;17.75;;;;;;;;5082624;28;61982;-86
2023/01/17 09:40:15;;;;;;;;;28.50;21.00;;;;;;;;5064163;28;62059;-87
2023/01/17 09:42:42;;;;;;;;;22.50;17.25;;;;;;;;5069967;28;64099;-86
2023/01/17 09:45:13;;;;;;;;;38.00;20.75;;;;;;;;5079338;28;61867;-87
2023/01/17 09:47:43;;;;;;;;;29.25;21.50;;;;;;;;5064474;28;62021;-87
2023/01/17 09:50:27;;;;;;;;;28.00;22.00;;;;;;;;5072770;28;61988;-87
2023/01/17 09:53:03;;;;;;;;;26.00;17.50;;;;;;;;5082093;28;63008;-85
2023/01/17 09:55:47;;;;;;;;;18.00;13.75;;;;;;;;5082294;28;61993;-86
2023/01/17 09:58:19;;;;;;;;;23.00;15.25;;;;;;;;5064022;28;62118;-86
2023/01/17 10:00:56;;;;;;;;;24.50;16.75;;;;;;;;5082511;28;61753;-86
2023/01/17 10:03:24;;;;;;;;;14.75;13.75;;;;;;;;5063359;28;64073;-86
2023/01/17 10:06:05;;;;;;;;;27.75;17.75;;;;;;;;5082484;28;61850;-87
2023/01/17 10:08:39;;;;;;;;;21.50;15.00;;;;;;;;5082252;28;61793;-86
2023/01/17 10:11:05;;;;;;;;;26.25;16.25;;;;;;;;5081593;28;62050;-86
2023/01/17 10:13:33;;;;;;;;;21.00;14.00;;;;;;;;5063680;28;63670;-87
2023/01/17 10:16:17;;;;;;;;;18.25;12.50;;;;;;;;5082019;28;61958;-87
2023/01/17 10:18:48;;;;;;;;;18.75;15.50;;;;;;;;5082494;28;61912;-87
2023/01/17 10:21:26;;;;;;;;;23.25;17.25;;;;;;;;5063477;28;61671;-86
2023/01/17 10:24:26;;;;;;;;;20.00;17.50;;;;;;;;5063304;28;63784;-86
2023/01/17 10:26:55;;;;;;;;;24.25;15.00;;;;;;;;5019315;28;62183;-86
2023/01/17 10:29:21;;;;;;;;;15.50;9.75;;;;;;;;5019233;28;61917;-84
2023/01/17 10:31:51;;;;;;;;;19.50;10.50;;;;;;;;5019389;28;61758;-83
2023/01/17 10:34:17;;;;;;;;;16.50;9.50;;;;;;;;5018423;28;62784;-82
2023/01/17 10:36:45;;;;;;;;;17.00;11.00;;;;;;;;5019259;28;61842;-82
2023/01/17 10:39:31;;;;;;;;;15.50;9.50;;;;;;;;5018863;28;62021;-82
2023/01/17 10:42:11;;;;;;;;;15.50;11.25;;;;;;;;5027276;28;62065;-82
2023/01/17 10:44:58;;;;;;;;;12.25;10.25;;;;;;;;5038109;28;62042;-82
2023/01/17 10:47:26;;;;;;;;;14.25;10.00;;;;;;;;5038725;28;61895;-81
2023/01/17 10:49:53;;;;;;;;;14.50;10.50;;;;;;;;5023886;28;61948;-82
2023/01/17 10:52:18;;;;;;;;;22.75;17.75;;;;;;;;5019043;28;61856;-82
2023/01/17 10:55:06;;;;;;;;;21.00;12.50;;;;;;;;5017958;28;61928;-82
2023/01/17 10:57:44;;;;;;;;;14.00;12.00;;;;;;;;5002263;28;62074;-82
2023/01/17 11:00:25;;;;;;;;;23.75;13.75;;;;;;;;5031185;28;61864;-82
2023/01/17 11:02:50;;;;;;;;;15.75;12.00;;;;;;;;5067040;28;61769;-82
2023/01/17 11:05:21;;;;;;;;;15.00;10.25;;;;;;;;5065589;28;63638;-82
2023/01/17 11:08:01;;;;;;;;;17.00;14.00;;;;;;;;5085099;28;61912;-82
2023/01/17 11:10:35;;;;;;;;;14.25;14.00;;;;;;;;5066219;28;62072;-82
2023/01/17 11:13:02;;;;;;;;;17.00;12.25;;;;;;;;5085222;28;62102;-82
2023/01/17 11:15:30;;;;;;;;;10.25;8.00;;;;;;;;5084099;28;63023;-82
2023/01/17 11:18:05;;;;;;;;;18.75;15.00;;;;;;;;5084986;28;61893;-82
2023/01/17 11:20:39;;;;;;;;;11.00;11.00;;;;;;;;5066697;28;61914;-82
2023/01/17 11:23:22;;;;;;;;;13.00;10.75;;;;;;;;5085046;28;61910;-82
2023/01/17 11:25:49;;;;;;;;;11.25;10.75;;;;;;;;5083829;28;61869;-82
2023/01/17 11:28:17;;;;;;;;;14.00;12.00;;;;;;;;5084570;28;61902;-82
2023/01/17 11:30:49;;;;;;;;;17.00;16.75;;;;;;;;5066525;28;61761;-82
2023/01/17 11:33:28;;;;;;;;;27.25;18.75;;;;;;;;5084820;28;61741;-82
2023/01/17 11:35:54;;;;;;;;;24.25;19.00;;;;;;;;5084159;28;61951;-82
2023/01/17 11:38:20;;;;;;;;;18.25;13.75;;;;;;;;5084160;28;61728;-86
2023/01/17 11:40:46;;;;;;;;;16.00;12.75;;;;;;;;5062601;28;62037;-83
2023/01/17 11:43:13;;;;;;;;;15.00;13.00;;;;;;;;5065774;28;61797;-86
2023/01/17 11:45:39;;;;;;;;;21.25;15.50;;;;;;;;5062034;28;65084;-87
2023/01/17 11:48:07;;;;;;;;;19.00;12.00;;;;;;;;5046386;28;61946;-86
2023/01/17 11:50:37;;;;;;;;;12.50;5.75;;;;;;;;5084370;28;61790;-85
2023/01/17 11:53:06;;;;;;;;;15.75;9.50;;;;;;;;5066743;28;62147;-84
2023/01/17 11:55:31;;;;;;;;;8.75;8.75;;;;;;;;5083179;28;61935;-84
2023/01/17 11:57:57;;;;;;;;;15.25;13.25;;;;;;;;5084306;28;61850;-85
2023/01/17 12:00:25;;;;;;;;;14.50;8.00;;;;;;;;5084241;28;61706;-85
2023/01/17 12:03:09;;;;;;;;;15.00;10.25;;;;;;;;5084669;28;61711;-85
2023/01/17 12:06:10;;;;;;;;;16.00;9.25;;;;;;;;5083418;28;62094;-84
2023/01/17 12:08:38;;;;;;;;;17.25;12.00;;;;;;;;5023984;28;62338;-85
2023/01/17 12:11:06;;;;;;;;;14.50;7.00;;;;;;;;5023831;28;61845;-85
2023/01/17 12:13:59;;;;;;;;;19.50;13.50;;;;;;;;5024109;28;61976;-85
2023/01/17 12:16:43;;;;;;;;;14.75;10.75;;;;;;;;5040179;28;61908;-84
2023/01/17 12:19:14;;;;;;;;;16.75;10.00;;;;;;;;5024306;28;62530;-82
2023/01/17 12:21:47;;;;;;;;;16.00;6.75;;;;;;;;5024109;28;61880;-80
2023/01/17 12:24:31;;;;;;;;;12.75;10.75;;;;;;;;5040819;28;61918;-81
2023/01/17 12:26:56;;;;;;;;;15.50;11.25;;;;;;;;5022517;28;63859;-81
2023/01/17 12:29:41;;;;;;;;;17.75;10.50;;;;;;;;5023594;28;61757;-81
2023/01/17 12:32:21;;;;;;;;;7.00;6.50;;;;;;;;5041090;28;61828;-81
2023/01/17 12:34:49;;;;;;;;;16.00;10.00;;;;;;;;5023759;28;61740;-81
2023/01/17 12:37:18;;;;;;;;;12.25;11.00;;;;;;;;5039594;28;62493;-81
2023/01/17 12:39:56;;;;;;;;;11.50;8.25;;;;;;;;5021057;28;61806;-81
2023/01/17 12:42:27;;;;;;;;;12.75;8.00;;;;;;;;5038458;28;62137;-81
2023/01/17 12:45:02;;;;;;;;;11.25;5.00;;;;;;;;5082084;28;61841;-81
2023/01/17 12:47:29;;;;;;;;;12.75;9.25;;;;;;;;5082008;28;62581;-81
2023/01/17 12:50:06;;;;;;;;;6.00;5.50;;;;;;;;5083274;28;61801;-81
2023/01/17 12:52:37;;;;;;;;;11.50;7.00;;;;;;;;5064958;28;61868;-81
2023/01/17 12:55:10;;;;;;;;;7.75;7.75;;;;;;;;5064659;28;61699;-80
2023/01/17 12:57:39;;;;;;;;;10.75;8.25;;;;;;;;5082623;28;61755;-81
2023/01/17 13:00:05;;;;;;;;;9.25;9.25;;;;;;;;5083348;28;61872;-81
2023/01/17 13:02:57;;;;;;;;;7.50;5.50;;;;;;;;5065051;28;61765;-81
2023/01/17 13:05:34;;;;;;;;;9.25;8.00;;;;;;;;5062867;28;62012;-80
2023/01/17 13:08:05;;;;;;;;;10.25;9.00;;;;;;;;5082303;28;62131;-80
2023/01/17 13:10:37;;;;;;;;;9.25;7.00;;;;;;;;5082126;28;61880;-87
2023/01/17 13:13:10;;;;;;;;;7.25;7.00;;;;;;;;5083095;28;61812;-82
2023/01/17 13:15:38;;;;;;;;;9.25;7.50;;;;;;;;5064687;28;62117;-82
2023/01/17 13:18:14;;;;;;;;;7.50;7.00;;;;;;;;5082655;28;62973;-83
2023/01/17 13:20:39;;;;;;;;;9.50;8.00;;;;;;;;5082966;28;61871;-82
2023/01/17 13:23:15;;;;;;;;;7.00;7.00;;;;;;;;5064377;28;61833;-82
2023/01/17 13:25:43;;;;;;;;;8.75;7.00;;;;;;;;5082235;28;61982;-82
2023/01/17 13:28:17;;;;;;;;;10.75;6.50;;;;;;;;5082249;28;61870;-82
2023/01/17 13:31:04;;;;;;;;;7.00;7.00;;;;;;;;5082753;28;61815;-82
2023/01/17 13:33:30;;;;;;;;;11.25;9.50;;;;;;;;5064506;28;61941;-83
2023/01/17 13:36:07;;;;;;;;;10.25;8.50;;;;;;;;5082878;28;61794;-83
2023/01/17 13:38:53;;;;;;;;;10.25;6.75;;;;;;;;5063457;28;65033;-82
2023/01/17 13:41:34;;;;;;;;;10.25;8.25;;;;;;;;5064109;28;61995;-83
2023/01/17 13:46:57;;;;;;;;;7.50;6.50;;;;;;;;5082513;28;61954;-83
2023/01/17 13:49:28;;;;;;;;;10.25;9.00;;;;;;;;5081683;28;62058;-82
2023/01/17 13:52:09;;;;;;;;;7.00;7.00;;;;;;;;5064251;28;61877;-83
2023/01/17 13:54:45;;;;;;;;;15.25;9.00;;;;;;;;5082204;28;61923;-82
2023/01/17 13:57:27;;;;;;;;;10.25;8.50;;;;;;;;5064264;28;61757;-83
2023/01/17 13:59:52;;;;;;;;;15.50;11.50;;;;;;;;5081727;28;62558;-83
2023/01/17 14:02:30;;;;;;;;;10.25;8.25;;;;;;;;5064160;28;61850;-83
2023/01/17 14:05:16;;;;;;;;;11.00;7.00;;;;;;;;5082010;28;61785;-83
2023/01/17 14:08:00;;;;;;;;;8.25;5.75;;;;;;;;5081989;28;61887;-82
2023/01/17 14:10:26;;;;;;;;;16.25;11.00;;;;;;;;5081348;28;61924;-83
2023/01/17 14:12:51;;;;;;;;;13.50;10.00;;;;;;;;5063790;28;62205;-83
2023/01/17 14:15:21;;;;;;;;;11.00;9.50;;;;;;;;5063826;28;61897;-82
2023/01/17 14:17:59;;;;;;;;;11.00;6.00;;;;;;;;5064267;28;61779;-83
2023/01/17 14:20:24;;;;;;;;;8.00;6.00;;;;;;;;5081697;28;62049;-83
2023/01/17 14:22:49;;;;;;;;;14.25;9.50;;;;;;;;5063366;28;61887;-83
2023/01/17 14:25:18;;;;;;;;;13.75;5.25;;;;;;;;5063435;28;62192;-82
2023/01/17 14:27:46;;;;;;;;;12.00;7.00;;;;;;;;5082179;28;62091;-83
2023/01/17 14:30:14;;;;;;;;;8.25;7.00;;;;;;;;5081059;28;61835;-83
2023/01/17 14:32:39;;;;;;;;;10.50;6.00;;;;;;;;5082028;28;61794;-83
2023/01/17 14:35:05;;;;;;;;;7.00;6.00;;;;;;;;5081837;28;61686;-83
2023/01/17 14:37:30;;;;;;;;;6.75;6.25;;;;;;;;5066973;28;61785;-82
2023/01/17 14:39:55;;;;;;;;;6.50;6.50;;;;;;;;5084078;28;62656;-82
2023/01/17 14:42:22;;;;;;;;;7.50;5.75;;;;;;;;5085598;28;61723;-83
2023/01/17 14:45:02;;;;;;;;;10.75;6.75;;;;;;;;5084158;28;61977;-83
2023/01/17 14:47:30;;;;;;;;;7.00;6.75;;;;;;;;5085603;28;61907;-83
2023/01/17 14:50:18;;;;;;;;;8.75;6.75;;;;;;;;5084570;28;61958;-83
2023/01/17 14:52:44;;;;;;;;;5.50;5.00;;;;;;;;5066817;28;61785;-83
2023/01/17 14:55:15;;;;;;;;;6.00;6.00;;;;;;;;5085096;28;61612;-83
2023/01/17 14:57:41;;;;;;;;;12.00;6.25;;;;;;;;5085427;28;61875;-83
2023/01/17 15:00:18;;;;;;;;;8.50;6.50;;;;;;;;5084593;28;62098;-83
2023/01/17 15:02:43;;;;;;;;;11.25;6.50;;;;;;;;5065875;28;61821;-82
2023/01/17 15:05:13;;;;;;;;;6.25;6.25;;;;;;;;5085056;28;61636;-82
2023/01/17 15:07:39;;;;;;;;;6.50;5.75;;;;;;;;5066435;28;61906;-82
2023/01/17 15:10:04;;;;;;;;;10.75;7.00;;;;;;;;5083413;28;61932;-83
2023/01/17 15:12:30;;;;;;;;;9.00;5.50;;;;;;;;5085340;28;61948;-83
2023/01/17 15:14:57;;;;;;;;;7.25;5.25;;;;;;;;5084863;28;62070;-82
2023/01/17 15:17:23;;;;;;;;;13.25;9.25;;;;;;;;5066747;28;62075;-83
2023/01/17 15:19:54;;;;;;;;;13.00;6.25;;;;;;;;5084354;28;62060;-83
2023/01/17 15:22:19;;;;;;;;;7.00;6.25;;;;;;;;5084878;28;61872;-83
2023/01/17 15:24:45;;;;;;;;;7.50;7.00;;;;;;;;5084516;28;61750;-83
2023/01/17 15:27:13;;;;;;;;;6.50;6.50;;;;;;;;5084792;28;61808;-83
2023/01/17 15:29:39;;;;;;;;;5.50;5.00;;;;;;;;5084002;28;62613;-83
2023/01/17 15:32:05;;;;;;;;;5.75;5.75;;;;;;;;5066175;28;61722;-83
2023/01/17 15:34:32;;;;;;;;;9.50;7.00;;;;;;;;5084596;28;61665;-83
2023/01/17 15:36:59;;;;;;;;;10.75;8.50;;;;;;;;5066234;28;61944;-83
2023/01/17 15:39:32;;;;;;;;;13.50;10.00;;;;;;;;5083586;28;61890;-83
2023/01/17 15:41:59;;;;;;;;;8.00;6.50;;;;;;;;5082995;28;61961;-83
2023/01/17 15:44:30;;;;;;;;;11.25;7.25;;;;;;;;5083528;28;61780;-84
2023/01/17 15:46:56;;;;;;;;;11.50;7.50;;;;;;;;5062418;28;61692;-82
2023/01/17 15:49:22;;;;;;;;;11.50;8.75;;;;;;;;5073715;27;64565;-82
2023/01/17 15:51:50;;;;;;;;;5.75;4.00;;;;;;;;5065802;28;62044;-83
2023/01/17 15:54:27;;;;;;;;;11.25;3.50;;;;;;;;5082459;28;61931;-84
2023/01/17 15:57:02;;;;;;;;;13.50;7.00;;;;;;;;5083525;28;61792;-82